sensor_id;sensor_type;location;lat;lon;timestamp;P1;durP1;ratioP1;P2;durP2;ratioP2
29902;SDS011;30288;50.514;9.678;2024-02-15T00:00:13;9.88;;;7.60;;
29902;SDS011;30288;50.514;9.678;2024-02-15T00:02:21;12.00;;;7.93;;
29902;SDS011;30288;50.514;9.678;2024-02-15T00:04:27;10.57;;;7.88;;
29902;SDS011;30288;50.514;9.678;2024-02-15T00:06:33;10.43;;;7.88;;
29902;SDS011;30288;50.514;9.678;2024-02-15T00:08:39;11.80;;;7.35;;
29902;SDS011;30288;50.514;9.678;2024-02-15T00:10:46;10.52;;;7.35;;
29902;SDS011;30288;50.514;9.678;2024-02-15T00:12:51;9.80;;;7.53;;
29902;SDS011;30288;50.514;9.678;2024-02-15T00:14:57;10.18;;;7.15;;
29902;SDS011;30288;50.514;9.678;2024-02-15T00:17:03;9.93;;;7.38;;
29902;SDS011;30288;50.514;9.678;2024-02-15T00:19:13;10.43;;;7.00;;
29902;SDS011;30288;50.514;9.678;2024-02-15T00:21:19;10.57;;;7.40;;
29902;SDS011;30288;50.514;9.678;2024-02-15T00:23:24;11.65;;;8.13;;
29902;SDS011;30288;50.514;9.678;2024-02-15T00:25:30;9.73;;;7.47;;
29902;SDS011;30288;50.514;9.678;2024-02-15T00:27:35;9.52;;;7.20;;
29902;SDS011;30288;50.514;9.678;2024-02-15T00:29:41;12.13;;;6.75;;
29902;SDS011;30288;50.514;9.678;2024-02-15T00:31:49;9.88;;;7.03;;
29902;SDS011;30288;50.514;9.678;2024-02-15T00:33:58;9.07;;;6.95;;
29902;SDS011;30288;50.514;9.678;2024-02-15T00:36:07;11.43;;;8.07;;
29902;SDS011;30288;50.514;9.678;2024-02-15T00:38:16;9.98;;;7.57;;
29902;SDS011;30288;50.514;9.678;2024-02-15T00:40:22;11.45;;;8.27;;
29902;SDS011;30288;50.514;9.678;2024-02-15T00:42:25;10.75;;;8.05;;
29902;SDS011;30288;50.514;9.678;2024-02-15T00:44:30;10.00;;;7.70;;
29902;SDS011;30288;50.514;9.678;2024-02-15T00:46:38;12.13;;;7.60;;
29902;SDS011;30288;50.514;9.678;2024-02-15T00:48:44;10.70;;;8.15;;
29902;SDS011;30288;50.514;9.678;2024-02-15T00:50:50;10.85;;;7.93;;
29902;SDS011;30288;50.514;9.678;2024-02-15T00:53:04;13.32;;;8.48;;
29902;SDS011;30288;50.514;9.678;2024-02-15T00:55:11;12.65;;;8.02;;
29902;SDS011;30288;50.514;9.678;2024-02-15T00:57:18;11.07;;;8.10;;
29902;SDS011;30288;50.514;9.678;2024-02-15T00:59:24;14.55;;;9.13;;
29902;SDS011;30288;50.514;9.678;2024-02-15T01:01:30;11.25;;;8.63;;
29902;SDS011;30288;50.514;9.678;2024-02-15T01:03:42;14.48;;;10.00;;
29902;SDS011;30288;50.514;9.678;2024-02-15T01:05:49;13.10;;;9.40;;
29902;SDS011;30288;50.514;9.678;2024-02-15T01:07:55;17.45;;;10.73;;
29902;SDS011;30288;50.514;9.678;2024-02-15T01:10:03;13.65;;;10.02;;
29902;SDS011;30288;50.514;9.678;2024-02-15T01:12:10;14.18;;;10.40;;
29902;SDS011;30288;50.514;9.678;2024-02-15T01:14:15;13.82;;;10.25;;
29902;SDS011;30288;50.514;9.678;2024-02-15T01:16:21;13.75;;;10.45;;
29902;SDS011;30288;50.514;9.678;2024-02-15T01:18:29;16.63;;;10.25;;
29902;SDS011;30288;50.514;9.678;2024-02-15T01:20:34;13.10;;;10.63;;
29902;SDS011;30288;50.514;9.678;2024-02-15T01:22:40;14.68;;;10.48;;
29902;SDS011;30288;50.514;9.678;2024-02-15T01:26:52;12.80;;;10.65;;
29902;SDS011;30288;50.514;9.678;2024-02-15T01:28:58;13.85;;;11.18;;
29902;SDS011;30288;50.514;9.678;2024-02-15T01:31:04;15.43;;;11.43;;
29902;SDS011;30288;50.514;9.678;2024-02-15T01:33:12;15.32;;;11.35;;
29902;SDS011;30288;50.514;9.678;2024-02-15T01:35:19;14.48;;;11.40;;
29902;SDS011;30288;50.514;9.678;2024-02-15T01:37:24;16.77;;;12.73;;
29902;SDS011;30288;50.514;9.678;2024-02-15T01:39:30;17.65;;;12.82;;
29902;SDS011;30288;50.514;9.678;2024-02-15T01:41:37;16.30;;;12.63;;
29902;SDS011;30288;50.514;9.678;2024-02-15T01:43:46;18.63;;;13.35;;
29902;SDS011;30288;50.514;9.678;2024-02-15T01:45:54;18.95;;;13.23;;
29902;SDS011;30288;50.514;9.678;2024-02-15T01:48:03;16.15;;;13.38;;
29902;SDS011;30288;50.514;9.678;2024-02-15T01:50:12;22.65;;;13.27;;
29902;SDS011;30288;50.514;9.678;2024-02-15T01:52:19;17.75;;;12.98;;
29902;SDS011;30288;50.514;9.678;2024-02-15T01:54:25;17.77;;;13.70;;
29902;SDS011;30288;50.514;9.678;2024-02-15T01:56:34;18.13;;;12.55;;
29902;SDS011;30288;50.514;9.678;2024-02-15T01:58:41;21.05;;;14.27;;
29902;SDS011;30288;50.514;9.678;2024-02-15T02:00:50;19.27;;;14.60;;
29902;SDS011;30288;50.514;9.678;2024-02-15T02:03:01;16.88;;;13.23;;
29902;SDS011;30288;50.514;9.678;2024-02-15T02:05:12;20.02;;;12.35;;
29902;SDS011;30288;50.514;9.678;2024-02-15T02:07:17;18.38;;;13.65;;
29902;SDS011;30288;50.514;9.678;2024-02-15T02:09:20;19.48;;;12.63;;
29902;SDS011;30288;50.514;9.678;2024-02-15T02:11:26;22.13;;;14.27;;
29902;SDS011;30288;50.514;9.678;2024-02-15T02:13:31;21.90;;;13.32;;
29902;SDS011;30288;50.514;9.678;2024-02-15T02:15:40;22.52;;;13.57;;
29902;SDS011;30288;50.514;9.678;2024-02-15T02:17:48;17.90;;;13.10;;
29902;SDS011;30288;50.514;9.678;2024-02-15T02:19:54;18.48;;;13.00;;
29902;SDS011;30288;50.514;9.678;2024-02-15T02:22:00;20.27;;;14.15;;
29902;SDS011;30288;50.514;9.678;2024-02-15T02:24:09;19.92;;;13.80;;
29902;SDS011;30288;50.514;9.678;2024-02-15T02:26:22;25.05;;;13.75;;
29902;SDS011;30288;50.514;9.678;2024-02-15T02:28:28;19.08;;;13.18;;
29902;SDS011;30288;50.514;9.678;2024-02-15T02:30:34;17.38;;;13.40;;
29902;SDS011;30288;50.514;9.678;2024-02-15T02:32:42;18.75;;;13.80;;
29902;SDS011;30288;50.514;9.678;2024-02-15T02:34:52;20.00;;;14.13;;
29902;SDS011;30288;50.514;9.678;2024-02-15T02:36:59;20.35;;;14.27;;
29902;SDS011;30288;50.514;9.678;2024-02-15T02:39:07;17.45;;;13.68;;
29902;SDS011;30288;50.514;9.678;2024-02-15T02:41:20;24.05;;;13.65;;
29902;SDS011;30288;50.514;9.678;2024-02-15T02:43:26;19.65;;;13.23;;
29902;SDS011;30288;50.514;9.678;2024-02-15T02:45:32;23.27;;;13.73;;
29902;SDS011;30288;50.514;9.678;2024-02-15T02:47:37;16.30;;;11.38;;
29902;SDS011;30288;50.514;9.678;2024-02-15T02:49:43;19.70;;;13.70;;
29902;SDS011;30288;50.514;9.678;2024-02-15T02:51:49;17.40;;;12.95;;
29902;SDS011;30288;50.514;9.678;2024-02-15T02:53:55;18.98;;;13.07;;
29902;SDS011;30288;50.514;9.678;2024-02-15T02:56:03;21.08;;;13.93;;
29902;SDS011;30288;50.514;9.678;2024-02-15T02:58:12;20.80;;;13.27;;
29902;SDS011;30288;50.514;9.678;2024-02-15T03:00:18;16.80;;;12.30;;
29902;SDS011;30288;50.514;9.678;2024-02-15T03:02:24;21.80;;;13.82;;
29902;SDS011;30288;50.514;9.678;2024-02-15T03:04:31;20.42;;;13.65;;
29902;SDS011;30288;50.514;9.678;2024-02-15T03:06:37;20.42;;;13.05;;
29902;SDS011;30288;50.514;9.678;2024-02-15T03:08:44;21.02;;;11.95;;
29902;SDS011;30288;50.514;9.678;2024-02-15T03:10:49;20.58;;;12.15;;
29902;SDS011;30288;50.514;9.678;2024-02-15T03:12:54;23.10;;;12.48;;
29902;SDS011;30288;50.514;9.678;2024-02-15T03:15:02;20.70;;;12.98;;
29902;SDS011;30288;50.514;9.678;2024-02-15T03:17:11;15.98;;;11.80;;
29902;SDS011;30288;50.514;9.678;2024-02-15T03:19:17;19.58;;;12.40;;
29902;SDS011;30288;50.514;9.678;2024-02-15T03:21:19;15.40;;;11.38;;
29902;SDS011;30288;50.514;9.678;2024-02-15T03:23:25;21.48;;;12.18;;
29902;SDS011;30288;50.514;9.678;2024-02-15T03:25:34;17.65;;;11.60;;
29902;SDS011;30288;50.514;9.678;2024-02-15T03:27:39;20.85;;;12.07;;
29902;SDS011;30288;50.514;9.678;2024-02-15T03:29:45;19.02;;;12.77;;
29902;SDS011;30288;50.514;9.678;2024-02-15T03:31:53;19.08;;;12.27;;
29902;SDS011;30288;50.514;9.678;2024-02-15T03:33:58;17.98;;;12.13;;
29902;SDS011;30288;50.514;9.678;2024-02-15T03:36:05;17.10;;;12.30;;
29902;SDS011;30288;50.514;9.678;2024-02-15T03:38:18;16.77;;;11.57;;
29902;SDS011;30288;50.514;9.678;2024-02-15T03:40:24;18.08;;;12.30;;
29902;SDS011;30288;50.514;9.678;2024-02-15T03:42:32;19.30;;;11.90;;
29902;SDS011;30288;50.514;9.678;2024-02-15T03:44:35;19.33;;;12.45;;
29902;SDS011;30288;50.514;9.678;2024-02-15T03:46:40;21.67;;;12.70;;
29902;SDS011;30288;50.514;9.678;2024-02-15T03:48:56;20.42;;;11.25;;
29902;SDS011;30288;50.514;9.678;2024-02-15T03:51:01;16.25;;;11.82;;
29902;SDS011;30288;50.514;9.678;2024-02-15T03:53:09;14.98;;;11.85;;
29902;SDS011;30288;50.514;9.678;2024-02-15T03:55:19;19.50;;;12.80;;
29902;SDS011;30288;50.514;9.678;2024-02-15T03:57:25;17.02;;;12.10;;
29902;SDS011;30288;50.514;9.678;2024-02-15T03:59:31;16.60;;;11.70;;
29902;SDS011;30288;50.514;9.678;2024-02-15T04:01:37;16.67;;;11.48;;
29902;SDS011;30288;50.514;9.678;2024-02-15T04:03:44;16.23;;;10.75;;
29902;SDS011;30288;50.514;9.678;2024-02-15T04:05:54;16.00;;;11.30;;
29902;SDS011;30288;50.514;9.678;2024-02-15T04:07:59;13.65;;;11.23;;
29902;SDS011;30288;50.514;9.678;2024-02-15T04:10:07;14.43;;;10.35;;
29902;SDS011;30288;50.514;9.678;2024-02-15T04:12:10;18.75;;;11.60;;
29902;SDS011;30288;50.514;9.678;2024-02-15T04:14:17;15.43;;;11.77;;
29902;SDS011;30288;50.514;9.678;2024-02-15T04:16:25;16.55;;;11.60;;
29902;SDS011;30288;50.514;9.678;2024-02-15T04:18:39;17.10;;;11.35;;
29902;SDS011;30288;50.514;9.678;2024-02-15T04:20:47;17.17;;;10.95;;
29902;SDS011;30288;50.514;9.678;2024-02-15T04:22:55;19.38;;;12.73;;
29902;SDS011;30288;50.514;9.678;2024-02-15T04:25:03;19.90;;;12.02;;
29902;SDS011;30288;50.514;9.678;2024-02-15T04:27:19;18.55;;;11.00;;
29902;SDS011;30288;50.514;9.678;2024-02-15T04:29:24;16.88;;;11.65;;
29902;SDS011;30288;50.514;9.678;2024-02-15T04:31:29;20.67;;;10.93;;
29902;SDS011;30288;50.514;9.678;2024-02-15T04:33:39;18.45;;;11.48;;
29902;SDS011;30288;50.514;9.678;2024-02-15T04:35:47;16.00;;;10.48;;
29902;SDS011;30288;50.514;9.678;2024-02-15T04:37:56;18.40;;;11.65;;
29902;SDS011;30288;50.514;9.678;2024-02-15T04:40:02;18.02;;;11.38;;
29902;SDS011;30288;50.514;9.678;2024-02-15T04:42:12;16.45;;;10.38;;
29902;SDS011;30288;50.514;9.678;2024-02-15T04:44:20;15.15;;;10.38;;
29902;SDS011;30288;50.514;9.678;2024-02-15T04:46:28;17.52;;;11.95;;
29902;SDS011;30288;50.514;9.678;2024-02-15T04:48:34;19.35;;;12.30;;
29902;SDS011;30288;50.514;9.678;2024-02-15T04:50:37;23.55;;;12.18;;
29902;SDS011;30288;50.514;9.678;2024-02-15T04:52:44;16.52;;;11.02;;
29902;SDS011;30288;50.514;9.678;2024-02-15T04:54:54;18.40;;;11.45;;
29902;SDS011;30288;50.514;9.678;2024-02-15T04:57:02;15.95;;;11.02;;
29902;SDS011;30288;50.514;9.678;2024-02-15T04:59:10;20.55;;;11.48;;
29902;SDS011;30288;50.514;9.678;2024-02-15T05:01:17;24.33;;;12.38;;
29902;SDS011;30288;50.514;9.678;2024-02-15T05:03:22;18.10;;;12.18;;
29902;SDS011;30288;50.514;9.678;2024-02-15T05:05:27;14.25;;;11.13;;
29902;SDS011;30288;50.514;9.678;2024-02-15T05:07:35;15.48;;;10.23;;
29902;SDS011;30288;50.514;9.678;2024-02-15T05:09:45;20.60;;;12.63;;
29902;SDS011;30288;50.514;9.678;2024-02-15T05:11:50;19.42;;;12.38;;
29902;SDS011;30288;50.514;9.678;2024-02-15T05:13:58;17.58;;;12.05;;
29902;SDS011;30288;50.514;9.678;2024-02-15T05:16:07;20.20;;;12.88;;
29902;SDS011;30288;50.514;9.678;2024-02-15T05:18:12;17.63;;;11.27;;
29902;SDS011;30288;50.514;9.678;2024-02-15T05:20:18;17.05;;;11.73;;
29902;SDS011;30288;50.514;9.678;2024-02-15T05:22:24;19.52;;;12.98;;
29902;SDS011;30288;50.514;9.678;2024-02-15T05:24:30;19.38;;;12.90;;
29902;SDS011;30288;50.514;9.678;2024-02-15T05:26:41;19.42;;;13.07;;
29902;SDS011;30288;50.514;9.678;2024-02-15T05:28:53;22.20;;;13.52;;
29902;SDS011;30288;50.514;9.678;2024-02-15T05:31:11;17.73;;;12.20;;
29902;SDS011;30288;50.514;9.678;2024-02-15T05:33:21;19.98;;;13.93;;
29902;SDS011;30288;50.514;9.678;2024-02-15T05:35:27;21.10;;;13.60;;
29902;SDS011;30288;50.514;9.678;2024-02-15T05:37:33;18.60;;;11.88;;
29902;SDS011;30288;50.514;9.678;2024-02-15T05:39:38;21.40;;;13.02;;
29902;SDS011;30288;50.514;9.678;2024-02-15T05:41:44;21.45;;;12.98;;
29902;SDS011;30288;50.514;9.678;2024-02-15T05:43:53;19.77;;;13.73;;
29902;SDS011;30288;50.514;9.678;2024-02-15T05:45:59;20.02;;;13.07;;
29902;SDS011;30288;50.514;9.678;2024-02-15T05:48:03;23.30;;;13.85;;
29902;SDS011;30288;50.514;9.678;2024-02-15T05:50:14;20.65;;;12.68;;
29902;SDS011;30288;50.514;9.678;2024-02-15T05:52:22;19.00;;;13.27;;
29902;SDS011;30288;50.514;9.678;2024-02-15T05:54:28;20.33;;;13.57;;
29902;SDS011;30288;50.514;9.678;2024-02-15T05:56:35;22.10;;;14.32;;
29902;SDS011;30288;50.514;9.678;2024-02-15T05:58:41;23.40;;;14.40;;
29902;SDS011;30288;50.514;9.678;2024-02-15T06:00:49;19.55;;;13.55;;
29902;SDS011;30288;50.514;9.678;2024-02-15T06:02:55;20.98;;;14.73;;
29902;SDS011;30288;50.514;9.678;2024-02-15T06:04:58;25.80;;;16.10;;
29902;SDS011;30288;50.514;9.678;2024-02-15T06:07:07;22.92;;;14.25;;
29902;SDS011;30288;50.514;9.678;2024-02-15T06:09:14;19.05;;;13.48;;
29902;SDS011;30288;50.514;9.678;2024-02-15T06:11:23;22.98;;;13.35;;
29902;SDS011;30288;50.514;9.678;2024-02-15T06:13:29;24.08;;;15.23;;
29902;SDS011;30288;50.514;9.678;2024-02-15T06:15:35;20.20;;;12.63;;
29902;SDS011;30288;50.514;9.678;2024-02-15T06:17:43;21.77;;;14.70;;
29902;SDS011;30288;50.514;9.678;2024-02-15T06:19:47;18.50;;;13.88;;
29902;SDS011;30288;50.514;9.678;2024-02-15T06:21:53;19.85;;;14.43;;
29902;SDS011;30288;50.514;9.678;2024-02-15T06:23:58;22.65;;;14.13;;
29902;SDS011;30288;50.514;9.678;2024-02-15T06:26:04;17.88;;;13.02;;
29902;SDS011;30288;50.514;9.678;2024-02-15T06:28:10;21.33;;;13.73;;
29902;SDS011;30288;50.514;9.678;2024-02-15T06:30:42;19.38;;;14.02;;
29902;SDS011;30288;50.514;9.678;2024-02-15T06:33:04;19.05;;;13.20;;
29902;SDS011;30288;50.514;9.678;2024-02-15T06:35:23;23.50;;;14.50;;
29902;SDS011;30288;50.514;9.678;2024-02-15T06:37:40;22.85;;;15.18;;
29902;SDS011;30288;50.514;9.678;2024-02-15T06:39:59;20.85;;;14.70;;
29902;SDS011;30288;50.514;9.678;2024-02-15T06:42:04;19.65;;;13.25;;
29902;SDS011;30288;50.514;9.678;2024-02-15T06:44:08;17.35;;;12.18;;
29902;SDS011;30288;50.514;9.678;2024-02-15T06:46:14;21.63;;;13.48;;
29902;SDS011;30288;50.514;9.678;2024-02-15T06:48:23;19.60;;;14.07;;
29902;SDS011;30288;50.514;9.678;2024-02-15T06:50:29;18.50;;;13.13;;
29902;SDS011;30288;50.514;9.678;2024-02-15T06:52:35;28.83;;;16.55;;
29902;SDS011;30288;50.514;9.678;2024-02-15T06:54:38;30.17;;;17.17;;
29902;SDS011;30288;50.514;9.678;2024-02-15T06:56:44;29.20;;;15.13;;
29902;SDS011;30288;50.514;9.678;2024-02-15T06:58:50;23.80;;;14.20;;
29902;SDS011;30288;50.514;9.678;2024-02-15T07:00:56;22.98;;;14.55;;
29902;SDS011;30288;50.514;9.678;2024-02-15T07:03:01;24.77;;;15.70;;
29902;SDS011;30288;50.514;9.678;2024-02-15T07:05:13;27.17;;;15.38;;
29902;SDS011;30288;50.514;9.678;2024-02-15T07:07:19;24.30;;;15.30;;
29902;SDS011;30288;50.514;9.678;2024-02-15T07:09:25;22.65;;;14.90;;
29902;SDS011;30288;50.514;9.678;2024-02-15T07:11:31;25.48;;;14.88;;
29902;SDS011;30288;50.514;9.678;2024-02-15T07:13:37;24.10;;;14.50;;
29902;SDS011;30288;50.514;9.678;2024-02-15T07:15:47;28.02;;;14.63;;
29902;SDS011;30288;50.514;9.678;2024-02-15T07:17:53;19.88;;;11.85;;
29902;SDS011;30288;50.514;9.678;2024-02-15T07:19:59;23.08;;;15.05;;
29902;SDS011;30288;50.514;9.678;2024-02-15T07:22:08;25.42;;;16.83;;
29902;SDS011;30288;50.514;9.678;2024-02-15T07:24:13;25.08;;;17.20;;
29902;SDS011;30288;50.514;9.678;2024-02-15T07:26:20;24.13;;;14.88;;
29902;SDS011;30288;50.514;9.678;2024-02-15T07:28:26;21.58;;;15.88;;
29902;SDS011;30288;50.514;9.678;2024-02-15T07:30:31;18.88;;;14.20;;
29902;SDS011;30288;50.514;9.678;2024-02-15T07:32:38;21.63;;;13.95;;
29902;SDS011;30288;50.514;9.678;2024-02-15T07:34:44;18.20;;;13.05;;
29902;SDS011;30288;50.514;9.678;2024-02-15T07:36:50;23.23;;;14.55;;
29902;SDS011;30288;50.514;9.678;2024-02-15T07:38:58;20.98;;;14.15;;
29902;SDS011;30288;50.514;9.678;2024-02-15T07:41:05;26.13;;;14.90;;
29902;SDS011;30288;50.514;9.678;2024-02-15T07:43:08;22.20;;;14.30;;
29902;SDS011;30288;50.514;9.678;2024-02-15T07:45:14;23.60;;;13.32;;
29902;SDS011;30288;50.514;9.678;2024-02-15T07:47:21;21.25;;;13.70;;
29902;SDS011;30288;50.514;9.678;2024-02-15T07:49:29;16.73;;;11.70;;
29902;SDS011;30288;50.514;9.678;2024-02-15T07:51:36;20.95;;;12.82;;
29902;SDS011;30288;50.514;9.678;2024-02-15T07:53:41;16.60;;;11.05;;
29902;SDS011;30288;50.514;9.678;2024-02-15T07:55:49;17.63;;;10.93;;
29902;SDS011;30288;50.514;9.678;2024-02-15T07:57:55;16.00;;;10.45;;
29902;SDS011;30288;50.514;9.678;2024-02-15T08:00:01;18.85;;;10.93;;
29902;SDS011;30288;50.514;9.678;2024-02-15T08:02:12;21.23;;;11.43;;
29902;SDS011;30288;50.514;9.678;2024-02-15T08:04:23;18.80;;;10.23;;
29902;SDS011;30288;50.514;9.678;2024-02-15T08:06:30;15.40;;;10.38;;
29902;SDS011;30288;50.514;9.678;2024-02-15T08:08:38;16.40;;;11.07;;
29902;SDS011;30288;50.514;9.678;2024-02-15T08:10:50;14.48;;;10.18;;
29902;SDS011;30288;50.514;9.678;2024-02-15T08:12:56;15.43;;;10.05;;
29902;SDS011;30288;50.514;9.678;2024-02-15T08:15:07;21.30;;;10.40;;
29902;SDS011;30288;50.514;9.678;2024-02-15T08:17:16;20.25;;;10.38;;
29902;SDS011;30288;50.514;9.678;2024-02-15T08:19:21;15.80;;;9.38;;
29902;SDS011;30288;50.514;9.678;2024-02-15T08:21:31;19.10;;;10.07;;
29902;SDS011;30288;50.514;9.678;2024-02-15T08:23:38;16.40;;;10.00;;
29902;SDS011;30288;50.514;9.678;2024-02-15T08:25:47;15.88;;;10.13;;
29902;SDS011;30288;50.514;9.678;2024-02-15T08:27:55;14.77;;;9.68;;
29902;SDS011;30288;50.514;9.678;2024-02-15T08:30:00;17.63;;;9.63;;
29902;SDS011;30288;50.514;9.678;2024-02-15T08:32:06;15.50;;;9.38;;
29902;SDS011;30288;50.514;9.678;2024-02-15T08:34:13;13.63;;;8.82;;
29902;SDS011;30288;50.514;9.678;2024-02-15T08:36:22;16.00;;;9.80;;
29902;SDS011;30288;50.514;9.678;2024-02-15T08:38:31;19.55;;;9.63;;
29902;SDS011;30288;50.514;9.678;2024-02-15T08:40:33;17.73;;;8.57;;
29902;SDS011;30288;50.514;9.678;2024-02-15T08:42:41;13.30;;;7.72;;
29902;SDS011;30288;50.514;9.678;2024-02-15T08:44:44;17.02;;;7.80;;
29902;SDS011;30288;50.514;9.678;2024-02-15T08:46:51;15.50;;;7.97;;
29902;SDS011;30288;50.514;9.678;2024-02-15T08:48:57;13.25;;;7.55;;
29902;SDS011;30288;50.514;9.678;2024-02-15T08:51:03;15.25;;;6.72;;
29902;SDS011;30288;50.514;9.678;2024-02-15T08:53:10;14.55;;;6.97;;
29902;SDS011;30288;50.514;9.678;2024-02-15T08:55:13;14.27;;;7.10;;
29902;SDS011;30288;50.514;9.678;2024-02-15T08:57:19;13.43;;;7.20;;
29902;SDS011;30288;50.514;9.678;2024-02-15T08:59:27;13.55;;;6.63;;
29902;SDS011;30288;50.514;9.678;2024-02-15T09:01:32;18.40;;;6.43;;
29902;SDS011;30288;50.514;9.678;2024-02-15T09:03:41;13.07;;;5.53;;
29902;SDS011;30288;50.514;9.678;2024-02-15T09:05:50;12.65;;;5.07;;
29902;SDS011;30288;50.514;9.678;2024-02-15T09:07:56;14.82;;;5.50;;
29902;SDS011;30288;50.514;9.678;2024-02-15T09:10:01;13.57;;;5.15;;
29902;SDS011;30288;50.514;9.678;2024-02-15T09:12:05;10.30;;;5.03;;
29902;SDS011;30288;50.514;9.678;2024-02-15T09:14:13;15.55;;;5.38;;
29902;SDS011;30288;50.514;9.678;2024-02-15T09:16:23;15.30;;;5.35;;
29902;SDS011;30288;50.514;9.678;2024-02-15T09:18:29;12.27;;;4.82;;
29902;SDS011;30288;50.514;9.678;2024-02-15T09:20:35;12.07;;;5.13;;
29902;SDS011;30288;50.514;9.678;2024-02-15T09:22:47;10.68;;;4.47;;
29902;SDS011;30288;50.514;9.678;2024-02-15T09:24:55;13.20;;;5.05;;
29902;SDS011;30288;50.514;9.678;2024-02-15T09:26:58;10.55;;;4.30;;
29902;SDS011;30288;50.514;9.678;2024-02-15T09:29:03;12.32;;;4.50;;
29902;SDS011;30288;50.514;9.678;2024-02-15T09:31:09;9.65;;;4.80;;
29902;SDS011;30288;50.514;9.678;2024-02-15T09:33:21;12.95;;;5.20;;
29902;SDS011;30288;50.514;9.678;2024-02-15T09:35:23;13.25;;;4.63;;
29902;SDS011;30288;50.514;9.678;2024-02-15T09:37:31;10.05;;;4.05;;
29902;SDS011;30288;50.514;9.678;2024-02-15T09:39:38;14.90;;;4.47;;
29902;SDS011;30288;50.514;9.678;2024-02-15T09:41:44;10.60;;;4.07;;
29902;SDS011;30288;50.514;9.678;2024-02-15T09:43:59;11.85;;;4.03;;
29902;SDS011;30288;50.514;9.678;2024-02-15T09:46:06;10.75;;;3.60;;
29902;SDS011;30288;50.514;9.678;2024-02-15T09:48:11;14.20;;;3.88;;
29902;SDS011;30288;50.514;9.678;2024-02-15T09:50:23;13.70;;;4.00;;
29902;SDS011;30288;50.514;9.678;2024-02-15T09:52:29;10.88;;;3.80;;
29902;SDS011;30288;50.514;9.678;2024-02-15T09:54:38;11.43;;;3.58;;
29902;SDS011;30288;50.514;9.678;2024-02-15T09:56:47;7.60;;;3.03;;
29902;SDS011;30288;50.514;9.678;2024-02-15T09:58:53;8.88;;;3.20;;
29902;SDS011;30288;50.514;9.678;2024-02-15T10:01:00;8.68;;;3.10;;
29902;SDS011;30288;50.514;9.678;2024-02-15T10:03:12;14.30;;;3.50;;
29902;SDS011;30288;50.514;9.678;2024-02-15T10:05:25;8.30;;;3.22;;
29902;SDS011;30288;50.514;9.678;2024-02-15T10:07:31;8.95;;;3.20;;
29902;SDS011;30288;50.514;9.678;2024-02-15T10:09:38;10.43;;;3.05;;
29902;SDS011;30288;50.514;9.678;2024-02-15T10:11:51;9.32;;;3.63;;
29902;SDS011;30288;50.514;9.678;2024-02-15T10:14:06;7.00;;;3.30;;
29902;SDS011;30288;50.514;9.678;2024-02-15T10:16:18;9.77;;;3.25;;
29902;SDS011;30288;50.514;9.678;2024-02-15T10:18:27;11.57;;;3.58;;
29902;SDS011;30288;50.514;9.678;2024-02-15T10:20:35;10.63;;;3.35;;
29902;SDS011;30288;50.514;9.678;2024-02-15T10:22:41;9.80;;;2.90;;
29902;SDS011;30288;50.514;9.678;2024-02-15T10:24:48;9.70;;;3.30;;
29902;SDS011;30288;50.514;9.678;2024-02-15T10:27:00;12.50;;;3.85;;
29902;SDS011;30288;50.514;9.678;2024-02-15T10:29:06;7.68;;;3.25;;
29902;SDS011;30288;50.514;9.678;2024-02-15T10:31:11;8.88;;;3.05;;
29902;SDS011;30288;50.514;9.678;2024-02-15T10:33:19;7.65;;;2.92;;
29902;SDS011;30288;50.514;9.678;2024-02-15T10:35:35;7.18;;;2.35;;
29902;SDS011;30288;50.514;9.678;2024-02-15T10:37:41;7.72;;;2.92;;
29902;SDS011;30288;50.514;9.678;2024-02-15T10:39:46;7.07;;;2.15;;
29902;SDS011;30288;50.514;9.678;2024-02-15T10:42:11;9.23;;;2.78;;
29902;SDS011;30288;50.514;9.678;2024-02-15T10:44:17;6.50;;;2.72;;
29902;SDS011;30288;50.514;9.678;2024-02-15T10:46:25;12.75;;;2.90;;
29902;SDS011;30288;50.514;9.678;2024-02-15T10:48:31;8.95;;;3.22;;
29902;SDS011;30288;50.514;9.678;2024-02-15T10:50:40;9.20;;;2.50;;
29902;SDS011;30288;50.514;9.678;2024-02-15T10:52:48;7.72;;;2.70;;
29902;SDS011;30288;50.514;9.678;2024-02-15T10:55:01;7.03;;;2.20;;
29902;SDS011;30288;50.514;9.678;2024-02-15T10:57:16;9.30;;;2.47;;
29902;SDS011;30288;50.514;9.678;2024-02-15T10:59:28;9.63;;;2.50;;
29902;SDS011;30288;50.514;9.678;2024-02-15T11:01:36;8.80;;;2.90;;
29902;SDS011;30288;50.514;9.678;2024-02-15T11:03:50;8.52;;;2.40;;
29902;SDS011;30288;50.514;9.678;2024-02-15T11:06:03;7.22;;;2.22;;
29902;SDS011;30288;50.514;9.678;2024-02-15T11:08:12;10.68;;;2.60;;
29902;SDS011;30288;50.514;9.678;2024-02-15T11:10:18;6.82;;;2.55;;
29902;SDS011;30288;50.514;9.678;2024-02-15T11:12:21;7.95;;;2.47;;
29902;SDS011;30288;50.514;9.678;2024-02-15T11:14:42;6.80;;;2.40;;
29902;SDS011;30288;50.514;9.678;2024-02-15T11:16:51;6.43;;;2.50;;
29902;SDS011;30288;50.514;9.678;2024-02-15T11:18:57;7.97;;;2.20;;
29902;SDS011;30288;50.514;9.678;2024-02-15T11:21:06;9.57;;;2.50;;
29902;SDS011;30288;50.514;9.678;2024-02-15T11:23:12;8.93;;;2.50;;
29902;SDS011;30288;50.514;9.678;2024-02-15T11:25:38;8.73;;;2.20;;
29902;SDS011;30288;50.514;9.678;2024-02-15T11:27:43;9.77;;;2.47;;
29902;SDS011;30288;50.514;9.678;2024-02-15T11:29:50;7.82;;;2.20;;
29902;SDS011;30288;50.514;9.678;2024-02-15T11:31:55;7.70;;;2.30;;
29902;SDS011;30288;50.514;9.678;2024-02-15T11:34:07;9.05;;;2.25;;
29902;SDS011;30288;50.514;9.678;2024-02-15T11:36:52;10.85;;;2.20;;
29902;SDS011;30288;50.514;9.678;2024-02-15T11:38:58;6.38;;;2.30;;
29902;SDS011;30288;50.514;9.678;2024-02-15T11:41:06;6.20;;;2.08;;
29902;SDS011;30288;50.514;9.678;2024-02-15T11:43:44;8.77;;;2.13;;
29902;SDS011;30288;50.514;9.678;2024-02-15T11:46:01;6.22;;;2.03;;
29902;SDS011;30288;50.514;9.678;2024-02-15T11:48:07;8.88;;;2.30;;
29902;SDS011;30288;50.514;9.678;2024-02-15T11:50:15;5.80;;;1.90;;
29902;SDS011;30288;50.514;9.678;2024-02-15T11:52:25;4.68;;;1.67;;
29902;SDS011;30288;50.514;9.678;2024-02-15T11:54:31;8.30;;;2.13;;
29902;SDS011;30288;50.514;9.678;2024-02-15T12:01:33;6.45;;;1.63;;
29902;SDS011;30288;50.514;9.678;2024-02-15T12:03:52;6.65;;;2.00;;
29902;SDS011;30288;50.514;9.678;2024-02-15T12:06:11;5.75;;;1.90;;
29902;SDS011;30288;50.514;9.678;2024-02-15T12:08:46;7.38;;;1.95;;
29902;SDS011;30288;50.514;9.678;2024-02-15T12:11:05;4.50;;;1.58;;
29902;SDS011;30288;50.514;9.678;2024-02-15T12:13:24;5.40;;;1.92;;
29902;SDS011;30288;50.514;9.678;2024-02-15T12:15:47;6.30;;;1.55;;
29902;SDS011;30288;50.514;9.678;2024-02-15T12:18:17;7.05;;;2.10;;
29902;SDS011;30288;50.514;9.678;2024-02-15T12:20:37;11.25;;;2.03;;
29902;SDS011;30288;50.514;9.678;2024-02-15T12:22:44;7.05;;;1.80;;
29902;SDS011;30288;50.514;9.678;2024-02-15T12:24:59;5.30;;;1.40;;
29902;SDS011;30288;50.514;9.678;2024-02-15T12:27:13;5.05;;;1.50;;
29902;SDS011;30288;50.514;9.678;2024-02-15T12:29:19;12.20;;;2.03;;
29902;SDS011;30288;50.514;9.678;2024-02-15T12:31:26;3.92;;;1.58;;
29902;SDS011;30288;50.514;9.678;2024-02-15T12:33:32;4.22;;;1.58;;
29902;SDS011;30288;50.514;9.678;2024-02-15T12:35:40;6.85;;;1.55;;
29902;SDS011;30288;50.514;9.678;2024-02-15T12:37:45;6.60;;;1.90;;
29902;SDS011;30288;50.514;9.678;2024-02-15T12:39:51;6.00;;;1.45;;
29902;SDS011;30288;50.514;9.678;2024-02-15T12:41:59;6.40;;;1.55;;
29902;SDS011;30288;50.514;9.678;2024-02-15T12:44:05;4.28;;;1.63;;